East Springfield, Pennsylvania
Current Conditions -  °F | °C
As of 1:22 AM on Friday 19 Dec 2014 (Local Time) from KERI Reporting Station
Overcast Overcast  
Wind Chill: 24°   Ceiling: 1600
Heat Index: 32°   Visibility: 10mi
Dew Point: 25°   Wind: 10mph
Humidity: 75%   Direction: 300°WNW
Pressure: 30.12"   Gusts: 22mph
Location:  41.96°N, 80.41°W
Report Text: KERI 190622Z AUTO 30009G19KT 10SM OVC016 00/M04 A3012 RMK AO2 SNE02 P0000 T00001039
Loading
Personal Weather Stations






























Interactive Weather Map New forecast layout! Learn more

10-Day Weather Forecast

Advertisements
Track Severe Weather on mobile